sensor_id;sensor_type;location;lat;lon;timestamp;temperature;humidity
70068;DHT22;57425;51.616;6.680;2023-02-28T00:00:22;3.50;78.60
70068;DHT22;57425;51.616;6.680;2023-02-28T00:02:48;3.50;78.70
70068;DHT22;57425;51.616;6.680;2023-02-28T00:05:15;3.50;78.70
70068;DHT22;57425;51.616;6.680;2023-02-28T00:07:41;3.50;78.80
70068;DHT22;57425;51.616;6.680;2023-02-28T00:10:08;3.40;78.80
70068;DHT22;57425;51.616;6.680;2023-02-28T00:12:34;3.50;78.80
70068;DHT22;57425;51.616;6.680;2023-02-28T00:15:00;3.40;78.80
70068;DHT22;57425;51.616;6.680;2023-02-28T00:17:26;3.40;78.70
70068;DHT22;57425;51.616;6.680;2023-02-28T00:19:52;3.40;78.60
70068;DHT22;57425;51.616;6.680;2023-02-28T00:22:18;3.40;78.70
70068;DHT22;57425;51.616;6.680;2023-02-28T00:24:44;3.40;78.70
70068;DHT22;57425;51.616;6.680;2023-02-28T00:27:10;3.40;78.70
70068;DHT22;57425;51.616;6.680;2023-02-28T00:29:35;3.40;78.70
70068;DHT22;57425;51.616;6.680;2023-02-28T00:32:01;3.40;78.70
70068;DHT22;57425;51.616;6.680;2023-02-28T00:34:26;3.30;78.70
70068;DHT22;57425;51.616;6.680;2023-02-28T00:36:52;3.40;78.70
70068;DHT22;57425;51.616;6.680;2023-02-28T00:39:17;3.30;78.70
70068;DHT22;57425;51.616;6.680;2023-02-28T00:41:43;3.30;78.70
70068;DHT22;57425;51.616;6.680;2023-02-28T00:44:08;3.30;78.70
70068;DHT22;57425;51.616;6.680;2023-02-28T00:46:34;3.30;78.80
70068;DHT22;57425;51.616;6.680;2023-02-28T00:48:59;3.30;78.80
70068;DHT22;57425;51.616;6.680;2023-02-28T00:51:25;3.40;78.90
70068;DHT22;57425;51.616;6.680;2023-02-28T00:53:50;3.30;78.90
70068;DHT22;57425;51.616;6.680;2023-02-28T00:56:16;3.20;78.90
70068;DHT22;57425;51.616;6.680;2023-02-28T00:58:41;3.20;78.90
70068;DHT22;57425;51.616;6.680;2023-02-28T01:01:07;3.20;78.80
70068;DHT22;57425;51.616;6.680;2023-02-28T01:03:32;3.20;78.90
70068;DHT22;57425;51.616;6.680;2023-02-28T01:05:58;3.20;79.10
70068;DHT22;57425;51.616;6.680;2023-02-28T01:08:24;3.20;78.80
70068;DHT22;57425;51.616;6.680;2023-02-28T01:10:49;3.10;78.70
70068;DHT22;57425;51.616;6.680;2023-02-28T01:13:15;3.10;78.70
70068;DHT22;57425;51.616;6.680;2023-02-28T01:15:41;3.10;78.70
70068;DHT22;57425;51.616;6.680;2023-02-28T01:20:36;3.10;78.30
70068;DHT22;57425;51.616;6.680;2023-02-28T01:23:02;3.10;78.70
70068;DHT22;57425;51.616;6.680;2023-02-28T01:25:27;3.10;78.70
70068;DHT22;57425;51.616;6.680;2023-02-28T01:27:53;3.10;78.60
70068;DHT22;57425;51.616;6.680;2023-02-28T01:30:18;3.10;78.60
70068;DHT22;57425;51.616;6.680;2023-02-28T01:32:45;3.10;78.50
70068;DHT22;57425;51.616;6.680;2023-02-28T01:35:10;3.00;78.40
70068;DHT22;57425;51.616;6.680;2023-02-28T01:37:36;3.00;78.40
70068;DHT22;57425;51.616;6.680;2023-02-28T01:40:02;3.00;78.40
70068;DHT22;57425;51.616;6.680;2023-02-28T01:42:27;3.00;78.40
70068;DHT22;57425;51.616;6.680;2023-02-28T01:47:40;3.00;78.40
70068;DHT22;57425;51.616;6.680;2023-02-28T01:50:09;3.00;78.30
70068;DHT22;57425;51.616;6.680;2023-02-28T01:52:39;3.00;78.30
70068;DHT22;57425;51.616;6.680;2023-02-28T01:55:05;3.00;78.40
70068;DHT22;57425;51.616;6.680;2023-02-28T01:57:32;3.00;78.30
70068;DHT22;57425;51.616;6.680;2023-02-28T02:00:13;3.00;78.30
70068;DHT22;57425;51.616;6.680;2023-02-28T02:02:40;2.90;78.30
70068;DHT22;57425;51.616;6.680;2023-02-28T02:05:07;2.90;78.80
70068;DHT22;57425;51.616;6.680;2023-02-28T02:07:35;2.90;78.20
70068;DHT22;57425;51.616;6.680;2023-02-28T02:10:02;2.90;78.20
70068;DHT22;57425;51.616;6.680;2023-02-28T02:12:36;2.90;78.20
70068;DHT22;57425;51.616;6.680;2023-02-28T02:17:37;2.90;78.30
70068;DHT22;57425;51.616;6.680;2023-02-28T02:22:56;2.80;78.20
70068;DHT22;57425;51.616;6.680;2023-02-28T02:33:41;2.80;78.00
70068;DHT22;57425;51.616;6.680;2023-02-28T02:38:45;2.70;78.10
70068;DHT22;57425;51.616;6.680;2023-02-28T02:46:27;2.70;78.10
70068;DHT22;57425;51.616;6.680;2023-02-28T02:48:54;2.70;78.10
70068;DHT22;57425;51.616;6.680;2023-02-28T02:51:21;2.70;78.20
70068;DHT22;57425;51.616;6.680;2023-02-28T02:53:55;2.60;78.10
70068;DHT22;57425;51.616;6.680;2023-02-28T02:56:23;2.60;78.10
70068;DHT22;57425;51.616;6.680;2023-02-28T02:58:50;2.60;78.20
70068;DHT22;57425;51.616;6.680;2023-02-28T03:01:20;2.60;78.10
70068;DHT22;57425;51.616;6.680;2023-02-28T03:04:11;2.60;78.00
70068;DHT22;57425;51.616;6.680;2023-02-28T03:06:39;2.60;78.10
70068;DHT22;57425;51.616;6.680;2023-02-28T03:09:04;2.60;78.00
70068;DHT22;57425;51.616;6.680;2023-02-28T03:11:30;2.50;77.50
70068;DHT22;57425;51.616;6.680;2023-02-28T03:14:03;2.50;78.00
70068;DHT22;57425;51.616;6.680;2023-02-28T03:24:11;2.50;77.90
70068;DHT22;57425;51.616;6.680;2023-02-28T03:26:40;2.50;77.90
70068;DHT22;57425;51.616;6.680;2023-02-28T03:31:53;2.50;78.00
70068;DHT22;57425;51.616;6.680;2023-02-28T03:34:27;2.40;77.80
70068;DHT22;57425;51.616;6.680;2023-02-28T03:36:55;2.40;77.90
70068;DHT22;57425;51.616;6.680;2023-02-28T03:39:31;2.40;77.80
70068;DHT22;57425;51.616;6.680;2023-02-28T03:42:01;2.40;77.90
70068;DHT22;57425;51.616;6.680;2023-02-28T03:44:32;2.40;77.80
70068;DHT22;57425;51.616;6.680;2023-02-28T03:47:01;2.40;77.70
70068;DHT22;57425;51.616;6.680;2023-02-28T03:49:32;2.40;77.70
70068;DHT22;57425;51.616;6.680;2023-02-28T03:52:01;2.30;77.70
70068;DHT22;57425;51.616;6.680;2023-02-28T03:54:28;2.30;77.70
70068;DHT22;57425;51.616;6.680;2023-02-28T03:56:57;2.30;77.70
70068;DHT22;57425;51.616;6.680;2023-02-28T03:59:28;2.30;77.70
70068;DHT22;57425;51.616;6.680;2023-02-28T04:01:54;2.30;77.70
70068;DHT22;57425;51.616;6.680;2023-02-28T04:04:20;2.30;77.70
70068;DHT22;57425;51.616;6.680;2023-02-28T04:06:46;2.30;77.50
70068;DHT22;57425;51.616;6.680;2023-02-28T04:09:14;2.30;77.50
70068;DHT22;57425;51.616;6.680;2023-02-28T04:11:41;2.30;77.40
70068;DHT22;57425;51.616;6.680;2023-02-28T04:14:09;2.30;77.40
70068;DHT22;57425;51.616;6.680;2023-02-28T04:16:35;2.40;77.40
70068;DHT22;57425;51.616;6.680;2023-02-28T04:19:05;2.30;77.40
70068;DHT22;57425;51.616;6.680;2023-02-28T04:21:34;2.30;77.30
70068;DHT22;57425;51.616;6.680;2023-02-28T04:24:00;2.30;77.30
70068;DHT22;57425;51.616;6.680;2023-02-28T04:26:33;2.20;77.30
70068;DHT22;57425;51.616;6.680;2023-02-28T04:28:59;2.20;77.30
70068;DHT22;57425;51.616;6.680;2023-02-28T04:31:25;2.20;77.30
70068;DHT22;57425;51.616;6.680;2023-02-28T04:33:50;2.20;77.30
70068;DHT22;57425;51.616;6.680;2023-02-28T04:36:16;2.20;77.30
70068;DHT22;57425;51.616;6.680;2023-02-28T04:38:43;2.20;77.30
70068;DHT22;57425;51.616;6.680;2023-02-28T04:41:08;2.20;77.30
70068;DHT22;57425;51.616;6.680;2023-02-28T04:43:34;2.20;77.20
70068;DHT22;57425;51.616;6.680;2023-02-28T04:46:00;2.20;77.20
70068;DHT22;57425;51.616;6.680;2023-02-28T04:48:29;2.20;77.20
70068;DHT22;57425;51.616;6.680;2023-02-28T04:50:55;2.20;77.10
70068;DHT22;57425;51.616;6.680;2023-02-28T04:53:24;2.10;77.00
70068;DHT22;57425;51.616;6.680;2023-02-28T04:55:50;2.10;77.00
70068;DHT22;57425;51.616;6.680;2023-02-28T04:58:15;2.10;77.00
70068;DHT22;57425;51.616;6.680;2023-02-28T05:00:41;2.10;76.90
70068;DHT22;57425;51.616;6.680;2023-02-28T05:03:06;2.10;76.90
70068;DHT22;57425;51.616;6.680;2023-02-28T05:05:32;2.10;76.90
70068;DHT22;57425;51.616;6.680;2023-02-28T05:07:58;2.10;76.80
70068;DHT22;57425;51.616;6.680;2023-02-28T05:10:24;2.10;76.80
70068;DHT22;57425;51.616;6.680;2023-02-28T05:12:50;2.00;76.80
70068;DHT22;57425;51.616;6.680;2023-02-28T05:15:17;2.00;76.80
70068;DHT22;57425;51.616;6.680;2023-02-28T05:17:43;2.00;76.80
70068;DHT22;57425;51.616;6.680;2023-02-28T05:22:36;2.10;84.30
70068;DHT22;57425;51.616;6.680;2023-02-28T05:25:02;2.00;76.80
70068;DHT22;57425;51.616;6.680;2023-02-28T05:27:28;2.00;76.70
70068;DHT22;57425;51.616;6.680;2023-02-28T05:29:53;1.90;76.60
70068;DHT22;57425;51.616;6.680;2023-02-28T05:32:19;1.90;76.60
70068;DHT22;57425;51.616;6.680;2023-02-28T05:34:44;1.90;76.60
70068;DHT22;57425;51.616;6.680;2023-02-28T05:37:11;1.90;76.70
70068;DHT22;57425;51.616;6.680;2023-02-28T05:39:37;1.90;76.60
70068;DHT22;57425;51.616;6.680;2023-02-28T05:42:03;1.90;76.60
70068;DHT22;57425;51.616;6.680;2023-02-28T05:44:28;1.90;76.60
70068;DHT22;57425;51.616;6.680;2023-02-28T05:46:54;1.90;76.50
70068;DHT22;57425;51.616;6.680;2023-02-28T05:49:19;1.90;76.50
70068;DHT22;57425;51.616;6.680;2023-02-28T05:51:45;1.90;76.50
70068;DHT22;57425;51.616;6.680;2023-02-28T05:54:10;1.90;76.50
70068;DHT22;57425;51.616;6.680;2023-02-28T05:56:36;1.90;76.50
70068;DHT22;57425;51.616;6.680;2023-02-28T05:59:04;1.80;76.40
70068;DHT22;57425;51.616;6.680;2023-02-28T06:03:59;1.80;76.30
70068;DHT22;57425;51.616;6.680;2023-02-28T06:06:25;1.80;76.40
70068;DHT22;57425;51.616;6.680;2023-02-28T06:08:50;1.80;76.30
70068;DHT22;57425;51.616;6.680;2023-02-28T06:11:16;1.80;76.30
70068;DHT22;57425;51.616;6.680;2023-02-28T06:13:41;1.80;76.30
70068;DHT22;57425;51.616;6.680;2023-02-28T06:16:08;1.80;76.20
70068;DHT22;57425;51.616;6.680;2023-02-28T06:18:34;1.80;76.30
70068;DHT22;57425;51.616;6.680;2023-02-28T06:21:00;1.80;76.30
70068;DHT22;57425;51.616;6.680;2023-02-28T06:23:26;1.70;76.30
70068;DHT22;57425;51.616;6.680;2023-02-28T06:25:51;1.70;76.30
70068;DHT22;57425;51.616;6.680;2023-02-28T06:28:18;1.70;76.20
70068;DHT22;57425;51.616;6.680;2023-02-28T06:30:43;1.70;76.20
70068;DHT22;57425;51.616;6.680;2023-02-28T06:33:09;1.70;76.20
70068;DHT22;57425;51.616;6.680;2023-02-28T06:35:35;1.70;76.50
70068;DHT22;57425;51.616;6.680;2023-02-28T06:38:00;1.60;76.30
70068;DHT22;57425;51.616;6.680;2023-02-28T06:40:26;1.60;76.20
70068;DHT22;57425;51.616;6.680;2023-02-28T06:42:51;1.60;76.10
70068;DHT22;57425;51.616;6.680;2023-02-28T06:45:17;1.60;76.00
70068;DHT22;57425;51.616;6.680;2023-02-28T06:47:42;1.60;75.90
70068;DHT22;57425;51.616;6.680;2023-02-28T06:50:09;1.60;75.90
70068;DHT22;57425;51.616;6.680;2023-02-28T06:52:35;1.60;75.90
70068;DHT22;57425;51.616;6.680;2023-02-28T06:55:04;1.60;75.90
70068;DHT22;57425;51.616;6.680;2023-02-28T06:57:31;1.60;75.90
70068;DHT22;57425;51.616;6.680;2023-02-28T06:59:58;1.60;75.90
70068;DHT22;57425;51.616;6.680;2023-02-28T07:02:23;1.60;75.90
70068;DHT22;57425;51.616;6.680;2023-02-28T07:04:49;1.50;75.80
70068;DHT22;57425;51.616;6.680;2023-02-28T07:07:14;1.50;75.80
70068;DHT22;57425;51.616;6.680;2023-02-28T07:09:40;1.50;75.80
70068;DHT22;57425;51.616;6.680;2023-02-28T07:12:05;1.50;75.90
70068;DHT22;57425;51.616;6.680;2023-02-28T07:14:31;1.50;75.90
70068;DHT22;57425;51.616;6.680;2023-02-28T07:16:57;1.50;75.80
70068;DHT22;57425;51.616;6.680;2023-02-28T07:19:22;1.50;75.90
70068;DHT22;57425;51.616;6.680;2023-02-28T07:21:48;1.50;75.90
70068;DHT22;57425;51.616;6.680;2023-02-28T07:24:13;1.50;76.00
70068;DHT22;57425;51.616;6.680;2023-02-28T07:26:41;1.50;76.00
70068;DHT22;57425;51.616;6.680;2023-02-28T07:29:06;1.50;76.00
70068;DHT22;57425;51.616;6.680;2023-02-28T07:31:33;1.50;76.10
70068;DHT22;57425;51.616;6.680;2023-02-28T07:33:58;1.50;76.10
70068;DHT22;57425;51.616;6.680;2023-02-28T07:36:24;1.40;76.00
70068;DHT22;57425;51.616;6.680;2023-02-28T07:38:50;1.50;76.10
70068;DHT22;57425;51.616;6.680;2023-02-28T07:41:16;1.50;76.10
70068;DHT22;57425;51.616;6.680;2023-02-28T07:43:42;1.50;76.10
70068;DHT22;57425;51.616;6.680;2023-02-28T07:46:09;1.40;76.10
70068;DHT22;57425;51.616;6.680;2023-02-28T07:48:34;1.40;76.10
70068;DHT22;57425;51.616;6.680;2023-02-28T07:51:00;1.40;76.10
70068;DHT22;57425;51.616;6.680;2023-02-28T07:53:26;1.40;76.10
70068;DHT22;57425;51.616;6.680;2023-02-28T07:55:55;1.40;76.10
70068;DHT22;57425;51.616;6.680;2023-02-28T07:58:21;1.40;76.10
70068;DHT22;57425;51.616;6.680;2023-02-28T08:00:46;1.40;76.40
70068;DHT22;57425;51.616;6.680;2023-02-28T08:03:12;1.40;76.20
70068;DHT22;57425;51.616;6.680;2023-02-28T08:05:39;1.40;76.30
70068;DHT22;57425;51.616;6.680;2023-02-28T08:08:05;1.40;76.20
70068;DHT22;57425;51.616;6.680;2023-02-28T08:10:31;1.40;76.20
70068;DHT22;57425;51.616;6.680;2023-02-28T08:12:56;1.40;76.20
70068;DHT22;57425;51.616;6.680;2023-02-28T08:15:22;1.40;76.10
70068;DHT22;57425;51.616;6.680;2023-02-28T08:17:47;1.40;76.10
70068;DHT22;57425;51.616;6.680;2023-02-28T08:20:13;1.40;76.10
70068;DHT22;57425;51.616;6.680;2023-02-28T08:22:38;1.40;76.00
70068;DHT22;57425;51.616;6.680;2023-02-28T08:25:04;1.40;76.00
70068;DHT22;57425;51.616;6.680;2023-02-28T08:27:29;1.40;76.00
70068;DHT22;57425;51.616;6.680;2023-02-28T08:29:55;1.40;76.30
70068;DHT22;57425;51.616;6.680;2023-02-28T08:32:20;1.40;75.90
70068;DHT22;57425;51.616;6.680;2023-02-28T08:34:46;1.40;75.90
70068;DHT22;57425;51.616;6.680;2023-02-28T08:37:12;1.40;76.00
70068;DHT22;57425;51.616;6.680;2023-02-28T08:39:37;1.40;76.10
70068;DHT22;57425;51.616;6.680;2023-02-28T08:42:03;1.40;76.10
70068;DHT22;57425;51.616;6.680;2023-02-28T08:44:29;1.40;76.10
70068;DHT22;57425;51.616;6.680;2023-02-28T08:46:54;1.40;76.20
70068;DHT22;57425;51.616;6.680;2023-02-28T08:49:20;1.40;76.80
70068;DHT22;57425;51.616;6.680;2023-02-28T08:51:45;1.50;76.30
70068;DHT22;57425;51.616;6.680;2023-02-28T08:54:11;1.40;76.20
70068;DHT22;57425;51.616;6.680;2023-02-28T08:56:45;1.50;76.30
70068;DHT22;57425;51.616;6.680;2023-02-28T08:59:10;1.50;76.40
70068;DHT22;57425;51.616;6.680;2023-02-28T09:01:36;1.50;76.40
70068;DHT22;57425;51.616;6.680;2023-02-28T09:04:02;1.50;76.40
70068;DHT22;57425;51.616;6.680;2023-02-28T09:06:27;1.50;76.30
70068;DHT22;57425;51.616;6.680;2023-02-28T09:08:55;1.50;76.30
70068;DHT22;57425;51.616;6.680;2023-02-28T09:11:23;1.50;76.40
70068;DHT22;57425;51.616;6.680;2023-02-28T09:13:49;1.50;76.30
70068;DHT22;57425;51.616;6.680;2023-02-28T09:16:15;1.50;76.40
70068;DHT22;57425;51.616;6.680;2023-02-28T09:18:41;1.50;76.40
70068;DHT22;57425;51.616;6.680;2023-02-28T09:21:08;1.60;76.40
70068;DHT22;57425;51.616;6.680;2023-02-28T09:23:34;1.60;76.50
70068;DHT22;57425;51.616;6.680;2023-02-28T09:26:00;1.60;76.50
70068;DHT22;57425;51.616;6.680;2023-02-28T09:28:26;1.60;76.60
70068;DHT22;57425;51.616;6.680;2023-02-28T09:30:52;1.60;76.50
70068;DHT22;57425;51.616;6.680;2023-02-28T09:33:18;1.60;76.60
70068;DHT22;57425;51.616;6.680;2023-02-28T09:35:47;1.60;76.50
70068;DHT22;57425;51.616;6.680;2023-02-28T09:38:13;1.70;76.60
70068;DHT22;57425;51.616;6.680;2023-02-28T09:41:00;1.70;76.40
70068;DHT22;57425;51.616;6.680;2023-02-28T09:43:34;1.70;76.50
70068;DHT22;57425;51.616;6.680;2023-02-28T09:48:45;1.70;76.60
70068;DHT22;57425;51.616;6.680;2023-02-28T09:53:44;1.70;76.60
70068;DHT22;57425;51.616;6.680;2023-02-28T09:56:10;1.80;76.60
70068;DHT22;57425;51.616;6.680;2023-02-28T10:06:20;1.90;75.20
70068;DHT22;57425;51.616;6.680;2023-02-28T10:11:25;1.90;75.50
70068;DHT22;57425;51.616;6.680;2023-02-28T10:13:59;1.90;75.60
70068;DHT22;57425;51.616;6.680;2023-02-28T10:16:34;1.90;75.70
70068;DHT22;57425;51.616;6.680;2023-02-28T10:19:14;2.00;75.80
70068;DHT22;57425;51.616;6.680;2023-02-28T10:21:43;2.00;75.90
70068;DHT22;57425;51.616;6.680;2023-02-28T10:26:38;2.00;76.00
70068;DHT22;57425;51.616;6.680;2023-02-28T10:29:07;2.00;76.00
70068;DHT22;57425;51.616;6.680;2023-02-28T10:31:33;2.00;76.00
70068;DHT22;57425;51.616;6.680;2023-02-28T10:33:58;2.10;76.10
70068;DHT22;57425;51.616;6.680;2023-02-28T10:36:24;2.10;76.00
70068;DHT22;57425;51.616;6.680;2023-02-28T10:38:49;2.10;76.00
70068;DHT22;57425;51.616;6.680;2023-02-28T10:41:16;2.10;75.90
70068;DHT22;57425;51.616;6.680;2023-02-28T10:43:42;2.20;75.90
70068;DHT22;57425;51.616;6.680;2023-02-28T10:46:12;2.10;75.90
70068;DHT22;57425;51.616;6.680;2023-02-28T10:51:08;2.20;75.90
70068;DHT22;57425;51.616;6.680;2023-02-28T10:53:35;2.30;75.90
70068;DHT22;57425;51.616;6.680;2023-02-28T11:01:15;2.30;75.90
70068;DHT22;57425;51.616;6.680;2023-02-28T11:03:41;2.30;75.90
70068;DHT22;57425;51.616;6.680;2023-02-28T11:06:08;2.30;76.00
70068;DHT22;57425;51.616;6.680;2023-02-28T11:08:34;2.30;76.00
70068;DHT22;57425;51.616;6.680;2023-02-28T11:11:01;2.40;76.00
70068;DHT22;57425;51.616;6.680;2023-02-28T11:13:31;2.40;76.00
70068;DHT22;57425;51.616;6.680;2023-02-28T11:15:58;2.40;76.00
70068;DHT22;57425;51.616;6.680;2023-02-28T11:18:57;2.40;76.00
70068;DHT22;57425;51.616;6.680;2023-02-28T11:21:19;2.50;76.00
70068;DHT22;57425;51.616;6.680;2023-02-28T11:23:46;2.50;76.10
70068;DHT22;57425;51.616;6.680;2023-02-28T11:26:12;2.50;76.20
70068;DHT22;57425;51.616;6.680;2023-02-28T11:28:39;2.50;76.20
70068;DHT22;57425;51.616;6.680;2023-02-28T11:36:10;2.60;76.10
70068;DHT22;57425;51.616;6.680;2023-02-28T11:38:36;2.60;76.10
70068;DHT22;57425;51.616;6.680;2023-02-28T11:41:16;2.60;76.10
70068;DHT22;57425;51.616;6.680;2023-02-28T11:48:51;2.70;76.30
70068;DHT22;57425;51.616;6.680;2023-02-28T11:51:21;2.70;76.30
70068;DHT22;57425;51.616;6.680;2023-02-28T12:07:00;2.90;76.00
70068;DHT22;57425;51.616;6.680;2023-02-28T12:17:29;2.90;76.00
70068;DHT22;57425;51.616;6.680;2023-02-28T12:20:02;2.90;76.10
70068;DHT22;57425;51.616;6.680;2023-02-28T12:22:31;3.00;76.30
70068;DHT22;57425;51.616;6.680;2023-02-28T12:25:01;3.00;76.40
70068;DHT22;57425;51.616;6.680;2023-02-28T12:27:29;3.00;76.40
70068;DHT22;57425;51.616;6.680;2023-02-28T12:29:59;3.00;76.30
70068;DHT22;57425;51.616;6.680;2023-02-28T12:35:01;3.10;74.90
70068;DHT22;57425;51.616;6.680;2023-02-28T12:37:33;3.10;75.40
70068;DHT22;57425;51.616;6.680;2023-02-28T12:40:03;3.10;75.60
70068;DHT22;57425;51.616;6.680;2023-02-28T12:42:39;3.10;75.50
70068;DHT22;57425;51.616;6.680;2023-02-28T12:47:34;3.20;75.90
70068;DHT22;57425;51.616;6.680;2023-02-28T12:50:04;3.20;75.90
70068;DHT22;57425;51.616;6.680;2023-02-28T12:54:58;3.20;75.30
70068;DHT22;57425;51.616;6.680;2023-02-28T12:57:30;3.30;75.70
70068;DHT22;57425;51.616;6.680;2023-02-28T13:00:10;3.30;76.00
70068;DHT22;57425;51.616;6.680;2023-02-28T13:02:48;3.30;76.10
70068;DHT22;57425;51.616;6.680;2023-02-28T13:10:47;3.40;76.40
70068;DHT22;57425;51.616;6.680;2023-02-28T13:13:19;3.40;76.50
70068;DHT22;57425;51.616;6.680;2023-02-28T13:16:07;3.40;76.60
70068;DHT22;57425;51.616;6.680;2023-02-28T13:20:58;3.40;76.20
70068;DHT22;57425;51.616;6.680;2023-02-28T13:23:36;3.40;76.40
70068;DHT22;57425;51.616;6.680;2023-02-28T13:26:03;3.40;74.40
70068;DHT22;57425;51.616;6.680;2023-02-28T13:31:13;3.50;75.00
70068;DHT22;57425;51.616;6.680;2023-02-28T13:34:24;3.50;75.20
70068;DHT22;57425;51.616;6.680;2023-02-28T13:38:55;3.60;72.30
70068;DHT22;57425;51.616;6.680;2023-02-28T13:44:00;3.60;74.60
70068;DHT22;57425;51.616;6.680;2023-02-28T13:46:27;3.60;73.70
70068;DHT22;57425;51.616;6.680;2023-02-28T13:48:52;3.70;74.80
70068;DHT22;57425;51.616;6.680;2023-02-28T14:04:34;3.80;75.50
70068;DHT22;57425;51.616;6.680;2023-02-28T14:07:04;3.80;75.80
70068;DHT22;57425;51.616;6.680;2023-02-28T14:09:38;3.80;76.00
70068;DHT22;57425;51.616;6.680;2023-02-28T14:17:14;3.80;75.40
70068;DHT22;57425;51.616;6.680;2023-02-28T14:19:43;3.80;75.90
70068;DHT22;57425;51.616;6.680;2023-02-28T14:22:19;3.90;74.30
70068;DHT22;57425;51.616;6.680;2023-02-28T14:30:36;4.00;73.70
70068;DHT22;57425;51.616;6.680;2023-02-28T14:37:43;4.10;70.80
70068;DHT22;57425;51.616;6.680;2023-02-28T14:40:14;4.10;72.40
70068;DHT22;57425;51.616;6.680;2023-02-28T14:42:45;4.10;72.30
70068;DHT22;57425;51.616;6.680;2023-02-28T14:45:18;4.10;72.60
70068;DHT22;57425;51.616;6.680;2023-02-28T14:47:44;4.10;71.60
70068;DHT22;57425;51.616;6.680;2023-02-28T14:50:17;4.10;71.60
70068;DHT22;57425;51.616;6.680;2023-02-28T14:52:44;4.10;72.20
70068;DHT22;57425;51.616;6.680;2023-02-28T14:55:12;4.20;71.70
70068;DHT22;57425;51.616;6.680;2023-02-28T14:57:40;4.20;71.70
70068;DHT22;57425;51.616;6.680;2023-02-28T15:00:16;4.20;71.20
70068;DHT22;57425;51.616;6.680;2023-02-28T15:02:42;4.30;70.60
70068;DHT22;57425;51.616;6.680;2023-02-28T15:07:43;4.30;69.70
70068;DHT22;57425;51.616;6.680;2023-02-28T15:10:23;4.30;71.40
70068;DHT22;57425;51.616;6.680;2023-02-28T15:15:21;4.30;73.50
70068;DHT22;57425;51.616;6.680;2023-02-28T15:17:50;4.30;72.60
70068;DHT22;57425;51.616;6.680;2023-02-28T15:20:18;4.30;72.10
70068;DHT22;57425;51.616;6.680;2023-02-28T15:22:45;4.30;72.00
70068;DHT22;57425;51.616;6.680;2023-02-28T15:25:13;4.30;72.80
70068;DHT22;57425;51.616;6.680;2023-02-28T15:27:43;4.40;73.10
70068;DHT22;57425;51.616;6.680;2023-02-28T15:30:18;4.40;73.30
70068;DHT22;57425;51.616;6.680;2023-02-28T15:32:46;4.40;72.20
70068;DHT22;57425;51.616;6.680;2023-02-28T15:35:27;4.40;72.80
70068;DHT22;57425;51.616;6.680;2023-02-28T15:38:03;4.40;73.40
70068;DHT22;57425;51.616;6.680;2023-02-28T15:40:38;4.40;73.40
70068;DHT22;57425;51.616;6.680;2023-02-28T15:43:05;4.40;73.20
70068;DHT22;57425;51.616;6.680;2023-02-28T15:45:38;4.40;73.20
70068;DHT22;57425;51.616;6.680;2023-02-28T15:48:13;4.40;73.60
70068;DHT22;57425;51.616;6.680;2023-02-28T15:50:40;4.50;73.80
70068;DHT22;57425;51.616;6.680;2023-02-28T15:53:09;4.40;73.00
70068;DHT22;57425;51.616;6.680;2023-02-28T15:55:38;4.50;73.50
70068;DHT22;57425;51.616;6.680;2023-02-28T15:58:05;4.50;74.00
70068;DHT22;57425;51.616;6.680;2023-02-28T16:00:31;4.50;74.40
70068;DHT22;57425;51.616;6.680;2023-02-28T16:02:58;4.50;74.70
70068;DHT22;57425;51.616;6.680;2023-02-28T16:05:28;4.50;74.90
70068;DHT22;57425;51.616;6.680;2023-02-28T16:07:57;4.50;75.00
70068;DHT22;57425;51.616;6.680;2023-02-28T16:10:24;4.70;75.10
70068;DHT22;57425;51.616;6.680;2023-02-28T16:12:52;4.50;75.20
70068;DHT22;57425;51.616;6.680;2023-02-28T16:15:19;4.50;75.30
70068;DHT22;57425;51.616;6.680;2023-02-28T16:17:45;4.50;75.40
70068;DHT22;57425;51.616;6.680;2023-02-28T16:20:15;4.50;75.60
70068;DHT22;57425;51.616;6.680;2023-02-28T16:22:41;4.50;75.60
70068;DHT22;57425;51.616;6.680;2023-02-28T16:25:10;4.60;75.50
70068;DHT22;57425;51.616;6.680;2023-02-28T16:27:36;4.60;75.40
70068;DHT22;57425;51.616;6.680;2023-02-28T16:30:05;4.60;75.50
70068;DHT22;57425;51.616;6.680;2023-02-28T16:32:34;4.60;75.70
70068;DHT22;57425;51.616;6.680;2023-02-28T16:35:00;4.60;75.70
70068;DHT22;57425;51.616;6.680;2023-02-28T16:37:26;4.60;75.90
70068;DHT22;57425;51.616;6.680;2023-02-28T16:39:52;4.60;76.00
70068;DHT22;57425;51.616;6.680;2023-02-28T16:42:21;4.60;76.10
70068;DHT22;57425;51.616;6.680;2023-02-28T16:44:49;4.60;76.20
70068;DHT22;57425;51.616;6.680;2023-02-28T16:47:14;4.60;76.30
70068;DHT22;57425;51.616;6.680;2023-02-28T16:49:40;4.70;76.40
70068;DHT22;57425;51.616;6.680;2023-02-28T16:52:07;4.60;76.40
70068;DHT22;57425;51.616;6.680;2023-02-28T16:54:33;4.60;76.40
70068;DHT22;57425;51.616;6.680;2023-02-28T16:56:59;4.60;76.50
70068;DHT22;57425;51.616;6.680;2023-02-28T16:59:26;4.60;76.50
70068;DHT22;57425;51.616;6.680;2023-02-28T17:01:52;4.60;76.50
70068;DHT22;57425;51.616;6.680;2023-02-28T17:04:18;4.60;76.50
70068;DHT22;57425;51.616;6.680;2023-02-28T17:06:43;4.60;76.50
70068;DHT22;57425;51.616;6.680;2023-02-28T17:09:14;4.60;76.50
70068;DHT22;57425;51.616;6.680;2023-02-28T17:11:40;4.60;76.60
70068;DHT22;57425;51.616;6.680;2023-02-28T17:14:06;4.60;76.60
70068;DHT22;57425;51.616;6.680;2023-02-28T17:16:35;4.60;76.70
70068;DHT22;57425;51.616;6.680;2023-02-28T17:19:02;4.60;76.70
70068;DHT22;57425;51.616;6.680;2023-02-28T17:21:28;4.60;76.60
70068;DHT22;57425;51.616;6.680;2023-02-28T17:23:54;4.60;76.60
70068;DHT22;57425;51.616;6.680;2023-02-28T17:26:20;4.60;76.50
70068;DHT22;57425;51.616;6.680;2023-02-28T17:28:46;4.50;76.50
70068;DHT22;57425;51.616;6.680;2023-02-28T17:31:12;4.50;76.50
70068;DHT22;57425;51.616;6.680;2023-02-28T17:33:38;4.50;76.40
70068;DHT22;57425;51.616;6.680;2023-02-28T17:36:03;4.50;76.40
70068;DHT22;57425;51.616;6.680;2023-02-28T17:38:29;4.50;76.40
70068;DHT22;57425;51.616;6.680;2023-02-28T17:40:54;4.50;76.40
70068;DHT22;57425;51.616;6.680;2023-02-28T17:43:26;4.50;76.30
70068;DHT22;57425;51.616;6.680;2023-02-28T17:45:52;4.50;76.30
70068;DHT22;57425;51.616;6.680;2023-02-28T17:48:17;4.50;76.20
70068;DHT22;57425;51.616;6.680;2023-02-28T17:50:44;4.50;76.20
70068;DHT22;57425;51.616;6.680;2023-02-28T17:53:09;4.40;76.10
70068;DHT22;57425;51.616;6.680;2023-02-28T17:55:36;4.40;76.00
70068;DHT22;57425;51.616;6.680;2023-02-28T17:58:02;4.40;76.00
70068;DHT22;57425;51.616;6.680;2023-02-28T18:00:28;4.40;75.90
70068;DHT22;57425;51.616;6.680;2023-02-28T18:02:54;4.40;75.80
70068;DHT22;57425;51.616;6.680;2023-02-28T18:05:19;4.40;75.80
70068;DHT22;57425;51.616;6.680;2023-02-28T18:07:45;4.40;75.70
70068;DHT22;57425;51.616;6.680;2023-02-28T18:10:17;4.40;75.70
70068;DHT22;57425;51.616;6.680;2023-02-28T18:12:47;4.30;75.60
70068;DHT22;57425;51.616;6.680;2023-02-28T18:15:14;4.40;75.70
70068;DHT22;57425;51.616;6.680;2023-02-28T18:17:40;4.30;75.60
70068;DHT22;57425;51.616;6.680;2023-02-28T18:20:06;4.40;75.70
70068;DHT22;57425;51.616;6.680;2023-02-28T18:22:31;4.30;75.60